Old Laguna, New Mexico
Current Conditions -  °F | °C
As of 8:35 AM on Saturday 25 Oct 2014 (Local Time) from KE80 Reporting Station
Clear Clear  
Wind Chill: 50°   Ceiling: Unl
Heat Index: 50°   Visibility: 10mi
Dew Point: 27°   Wind: 7mph
Humidity: 41%   Direction: 300°WNW
Pressure: 30.33"   Gusts: NA
Location:  34.9068°N, 107.279°W
Report Text: KE80 251435Z AUTO 30006KT 10SM CLR 10/M03 A3033 RMK AO2 T01011028
Loading
Personal Weather Stations






























Interactive Weather Map
Tropical Storm Tracking
New forecast layout! Learn more

10-Day Weather Forecast

Advertisements
Track Severe Weather on mobile